Time;durP1;ratioP1;P1;durP2;ratioP2;P2;SDS_P1;SDS_P2;PMS_P1;PMS_P2;Temp;Humidity;BMP_temperature;BMP_pressure;BME280_temperature;BME280_humidity;BME280_pressure;Samples;Min_cycle;Max_cycle;Signal;HPM_P1;HPM_P2
2024/01/01 00:00:07;;;;;;;;;;;;;;;;;;;;;
2024/01/01 00:02:39;;;;;;;0.57;0.57;;;;;;;5.88;53.25;101339.66;6067431;23;20898;-85
2024/01/01 00:05:13;;;;;;;0.40;0.40;;;;;;;5.89;53.44;101325.56;6044601;23;20411;-87
2024/01/01 00:07:39;;;;;;;0.98;0.98;;;;;;;5.86;53.29;101331.06;6040602;23;20370;-84
2024/01/01 00:10:07;;;;;;;1.67;1.57;;;;;;;5.85;53.26;101331.19;6097859;23;20366;-86
2024/01/01 00:12:33;;;;;;;0.52;0.52;;;;;;;5.84;53.17;101319.81;6105950;23;20366;-86
2024/01/01 00:15:00;;;;;;;0.50;0.50;;;;;;;5.90;52.82;101332.47;6087042;23;20501;-87
2024/01/01 00:17:28;;;;;;;0.43;0.43;;;;;;;5.93;53.06;101336.66;6102282;23;20368;-87
2024/01/01 00:19:53;;;;;;;0.70;0.70;;;;;;;5.86;53.31;101338.94;6095289;23;20374;-86
2024/01/01 00:22:22;;;;;;;1.70;1.60;;;;;;;5.84;53.13;101332.97;6094760;23;20384;-85
2024/01/01 00:24:48;;;;;;;1.85;1.35;;;;;;;5.73;52.90;101333.00;6095829;23;20366;-87
2024/01/01 00:27:14;;;;;;;1.15;1.05;;;;;;;5.72;53.26;101334.78;6071165;23;20683;-86
2024/01/01 00:29:39;;;;;;;0.52;0.52;;;;;;;5.70;53.30;101335.88;6095092;23;20405;-87
2024/01/01 00:32:10;;;;;;;0.43;0.43;;;;;;;5.70;53.07;101331.44;6095191;23;20394;-87
2024/01/01 00:34:36;;;;;;;2.78;1.13;;;;;;;5.74;53.14;101338.16;6071695;23;20421;-88
2024/01/01 00:37:03;;;;;;;3.40;2.13;;;;;;;5.78;52.86;101332.63;6071965;23;20362;-88
2024/01/01 00:39:28;;;;;;;1.08;0.98;;;;;;;5.79;52.97;101329.06;6096257;23;20358;-89
2024/01/01 00:41:57;;;;;;;0.85;0.85;;;;;;;5.81;52.69;101340.28;6072350;23;20526;-88
2024/01/01 00:44:32;;;;;;;0.50;0.50;;;;;;;5.80;52.73;101334.19;6098384;23;20382;-86
2024/01/01 00:46:58;;;;;;;1.60;0.97;;;;;;;5.72;52.71;101326.06;6106324;23;20377;-86
2024/01/01 00:49:24;;;;;;;0.80;0.77;;;;;;;5.71;53.06;101325.25;6096055;23;20368;-88
2024/01/01 00:51:50;;;;;;;0.50;0.50;;;;;;;5.75;52.58;101328.47;6096897;23;20676;-90
2024/01/01 00:54:16;;;;;;;0.40;0.40;;;;;;;5.77;52.42;101337.06;6073208;23;20370;-91
2024/01/01 00:56:42;;;;;;;2.80;0.95;;;;;;;5.72;52.52;101323.44;6074286;23;20431;-90
2024/01/01 00:59:08;;;;;;;1.48;1.38;;;;;;;5.61;52.60;101321.66;6073907;23;20369;-88
2024/01/01 01:01:34;;;;;;;1.40;1.30;;;;;;;5.59;52.95;101317.50;6070533;23;20456;-86
2024/01/01 01:03:59;;;;;;;1.40;1.30;;;;;;;5.65;52.49;101330.16;6096438;23;20684;-89
2024/01/01 01:06:25;;;;;;;0.55;0.55;;;;;;;5.64;52.62;101318.81;6099401;23;20366;-90
2024/01/01 01:11:19;;;;;;;0.95;0.65;;;;;;;5.77;52.72;101318.66;6095434;23;20910;-89
2024/01/01 01:13:45;;;;;;;1.23;1.13;;;;;;;5.78;52.39;101317.72;6095705;23;20365;-91
2024/01/01 01:16:10;;;;;;;1.15;1.15;;;;;;;5.75;52.38;101310.06;6097888;23;20369;-90
2024/01/01 01:18:37;;;;;;;0.50;0.50;;;;;;;5.78;52.19;101314.22;6095382;23;20457;-90
2024/01/01 01:21:03;;;;;;;1.55;1.45;;;;;;;5.65;52.26;101307.31;6072060;23;20783;-89
2024/01/01 01:23:31;;;;;;;0.57;0.57;;;;;;;5.64;52.69;101295.13;6071473;23;20369;-90
2024/01/01 01:25:57;;;;;;;0.40;0.40;;;;;;;5.67;52.61;101297.53;6095226;23;20746;-87
2024/01/01 01:28:23;;;;;;;0.70;0.70;;;;;;;5.69;52.33;101292.13;6070407;23;20432;-88
2024/01/01 01:30:49;;;;;;;0.57;0.57;;;;;;;5.70;52.44;101293.81;6069831;23;20428;-87
2024/01/01 01:33:15;;;;;;;0.85;0.85;;;;;;;5.67;52.33;101288.78;6093507;23;20365;-87
2024/01/01 01:35:41;;;;;;;0.63;0.63;;;;;;;5.67;52.31;101291.41;6094023;23;20706;-87
2024/01/01 01:38:10;;;;;;;1.50;1.02;;;;;;;5.55;52.50;101278.28;6068648;23;20370;-87
2024/01/01 01:40:35;;;;;;;0.90;0.90;;;;;;;5.41;52.83;101280.38;6092925;23;20384;-88
2024/01/01 01:43:02;;;;;;;1.90;1.80;;;;;;;5.31;52.82;101281.09;6095091;23;20354;-86
2024/01/01 01:45:28;;;;;;;1.55;1.20;;;;;;;5.31;53.30;101277.63;6094278;23;20364;-88
2024/01/01 01:47:54;;;;;;;0.85;0.85;;;;;;;5.44;52.89;101277.47;6070338;23;20393;-89
2024/01/01 01:50:21;;;;;;;3.33;3.03;;;;;;;5.52;52.72;101277.69;6070696;23;20366;-88
2024/01/01 01:52:48;;;;;;;0.65;0.65;;;;;;;5.58;52.30;101279.81;6045563;23;20691;-88
2024/01/01 01:55:22;;;;;;;2.20;1.67;;;;;;;5.60;52.31;101269.19;6068582;23;20397;-86
2024/01/01 01:57:48;;;;;;;0.75;0.75;;;;;;;5.42;52.37;101269.72;6090665;23;20757;-86
2024/01/01 02:00:14;;;;;;;0.55;0.55;;;;;;;5.39;52.57;101269.97;6067113;23;20358;-86
2024/01/01 02:02:41;;;;;;;1.50;1.40;;;;;;;5.23;53.17;101272.16;6097608;23;20373;-87
2024/01/01 02:05:07;;;;;;;1.98;1.88;;;;;;;4.85;54.11;101262.84;6104860;23;20370;-83
2024/01/01 02:07:32;;;;;;;0.90;0.90;;;;;;;4.78;54.50;101265.94;6083332;23;20362;-85
2024/01/01 02:09:59;;;;;;;1.57;1.47;;;;;;;4.68;54.85;101283.38;6092782;23;20378;-86
2024/01/01 02:12:24;;;;;;;1.98;1.23;;;;;;;4.82;54.54;101266.53;6069807;23;20758;-86
2024/01/01 02:14:50;;;;;;;0.90;0.90;;;;;;;4.88;54.23;101259.97;6093176;23;20868;-86
2024/01/01 02:17:20;;;;;;;0.55;0.50;;;;;;;4.94;54.55;101262.97;6093495;23;20369;-85
2024/01/01 02:19:45;;;;;;;0.80;0.80;;;;;;;4.88;54.42;101257.34;6094699;23;20377;-85
2024/01/01 02:22:11;;;;;;;1.63;1.17;;;;;;;4.79;54.68;101251.03;6096471;23;20484;-86
2024/01/01 02:24:40;;;;;;;3.20;1.70;;;;;;;4.95;54.59;101255.91;6078727;23;20377;-85
2024/01/01 02:27:06;;;;;;;0.67;0.67;;;;;;;4.97;54.48;101254.00;6109655;23;20545;-87
2024/01/01 02:29:31;;;;;;;0.60;0.60;;;;;;;4.85;54.51;101245.28;6096718;23;20370;-87
2024/01/01 02:31:57;;;;;;;0.70;0.70;;;;;;;4.82;55.23;101242.91;6095259;23;20353;-86
2024/01/01 02:34:24;;;;;;;0.30;0.30;;;;;;;4.78;54.51;101230.97;6070652;23;20381;-87
2024/01/01 02:36:49;;;;;;;1.05;1.05;;;;;;;4.78;54.89;101229.16;6071312;23;20361;-87
2024/01/01 02:39:15;;;;;;;0.97;0.97;;;;;;;4.83;54.82;101228.00;6073338;23;20398;-88
2024/01/01 02:41:41;;;;;;;1.40;1.30;;;;;;;4.91;54.75;101234.28;6093710;23;20438;-88
2024/01/01 02:44:07;;;;;;;0.20;0.20;;;;;;;5.04;54.26;101231.56;6089662;23;20429;-87
2024/01/01 02:46:33;;;;;;;0.73;0.73;;;;;;;5.11;54.06;101231.88;6084787;23;20415;-87
2024/01/01 02:48:58;;;;;;;1.33;1.33;;;;;;;5.07;54.48;101223.41;6074645;23;20365;-88
2024/01/01 02:51:25;;;;;;;1.00;1.00;;;;;;;5.04;54.26;101233.34;6094383;23;20353;-88
2024/01/01 02:53:51;;;;;;;1.20;1.10;;;;;;;4.92;54.58;101238.59;6071343;23;20921;-88
2024/01/01 02:56:19;;;;;;;0.83;0.83;;;;;;;4.98;54.90;101239.91;6094716;23;20460;-87
2024/01/01 02:58:45;;;;;;;0.80;0.80;;;;;;;5.03;54.30;101229.88;6070208;23;20361;-85
2024/01/01 03:01:11;;;;;;;1.45;1.35;;;;;;;4.89;55.04;101232.75;6068276;23;20781;-86
2024/01/01 03:03:37;;;;;;;1.17;1.17;;;;;;;4.75;55.33;101226.78;6096030;23;20821;-84
2024/01/01 03:06:07;;;;;;;0.23;0.23;;;;;;;4.84;55.60;101232.28;6097306;23;20366;-85
2024/01/01 03:08:36;;;;;;;0.50;0.50;;;;;;;4.76;55.31;101233.72;6095927;23;20384;-85
2024/01/01 03:11:04;;;;;;;1.40;0.70;;;;;;;4.75;55.82;101233.81;6071868;23;20413;-85
2024/01/01 03:13:32;;;;;;;0.50;0.50;;;;;;;4.71;56.12;101229.75;6068926;23;20370;-85
2024/01/01 03:15:59;;;;;;;0.95;0.95;;;;;;;4.75;55.59;101233.81;6091976;23;20369;-85
2024/01/01 03:18:25;;;;;;;0.93;0.93;;;;;;;4.38;57.08;101231.41;6092648;23;20373;-84
2024/01/01 03:20:51;;;;;;;0.70;0.70;;;;;;;4.32;56.93;101221.38;6068825;23;20381;-85
2024/01/01 03:23:17;;;;;;;1.00;1.00;;;;;;;4.00;57.89;101222.03;6093437;23;20373;-87
2024/01/01 03:25:42;;;;;;;0.35;0.35;;;;;;;3.95;58.16;101219.72;6093506;23;20449;-85
2024/01/01 03:28:08;;;;;;;0.40;0.40;;;;;;;4.13;57.83;101230.63;6092594;23;20366;-86
2024/01/01 03:30:34;;;;;;;0.70;0.70;;;;;;;4.09;57.44;101225.72;6068980;23;20373;-86
2024/01/01 03:32:59;;;;;;;0.50;0.50;;;;;;;4.20;57.34;101228.41;6093847;23;20370;-87
2024/01/01 03:35:25;;;;;;;0.50;0.50;;;;;;;4.36;56.49;101234.16;6096300;23;20377;-88
2024/01/01 03:37:51;;;;;;;0.80;0.80;;;;;;;4.47;56.25;101220.22;6072580;23;20710;-86
2024/01/01 03:40:17;;;;;;;0.88;0.88;;;;;;;4.35;56.22;101226.38;6084418;23;20365;-85
2024/01/01 03:42:42;;;;;;;2.17;2.08;;;;;;;4.34;56.04;101230.81;6088118;23;20369;-86
2024/01/01 03:45:08;;;;;;;1.95;1.80;;;;;;;4.22;56.30;101219.44;6087105;23;20396;-86
2024/01/01 03:47:34;;;;;;;0.80;0.80;;;;;;;4.33;56.47;101231.75;6111635;23;20409;-85
2024/01/01 03:50:00;;;;;;;0.35;0.35;;;;;;;4.54;55.73;101223.22;6098536;23;20370;-87
2024/01/01 03:52:25;;;;;;;0.77;0.77;;;;;;;4.56;55.87;101223.91;6091188;23;20733;-87
2024/01/01 03:54:51;;;;;;;1.10;0.90;;;;;;;4.68;55.58;101225.59;6093684;23;20365;-86
2024/01/01 03:57:17;;;;;;;0.90;0.90;;;;;;;4.68;55.31;101212.47;6068692;23;20432;-88
2024/01/01 03:59:43;;;;;;;1.30;1.10;;;;;;;4.71;55.45;101217.47;6092698;23;20374;-87
2024/01/01 04:02:10;;;;;;;0.63;0.63;;;;;;;4.77;55.32;101219.63;6069964;23;20845;-87
2024/01/01 04:04:43;;;;;;;1.35;1.27;;;;;;;4.73;55.55;101220.81;6096022;23;20763;-87
2024/01/01 04:07:08;;;;;;;2.55;1.75;;;;;;;4.64;55.89;101205.75;6075635;23;20377;-87
2024/01/01 04:09:34;;;;;;;0.90;0.90;;;;;;;4.45;56.52;101203.75;6111387;23;20409;-83
2024/01/01 04:12:00;;;;;;;0.90;0.90;;;;;;;4.39;56.82;101210.31;6084791;23;20361;-87
2024/01/01 04:14:26;;;;;;;2.47;1.55;;;;;;;4.42;56.48;101203.13;6094277;23;20400;-88
2024/01/01 04:16:51;;;;;;;1.55;1.45;;;;;;;4.48;56.45;101221.03;6094625;23;20748;-87
2024/01/01 04:19:17;;;;;;;2.63;1.42;;;;;;;4.48;56.56;101192.97;6095807;23;20416;-87
2024/01/01 04:21:43;;;;;;;0.90;0.90;;;;;;;4.36;57.20;101188.72;6093339;23;20405;-86
2024/01/01 04:24:09;;;;;;;1.20;1.10;;;;;;;4.36;57.27;101194.78;6070751;23;20385;-87
2024/01/01 04:26:37;;;;;;;1.33;1.23;;;;;;;4.40;56.92;101195.38;6074782;23;20481;-87
2024/01/01 04:29:03;;;;;;;0.95;0.93;;;;;;;4.38;57.37;101182.38;6081727;23;20372;-87
2024/01/01 04:31:28;;;;;;;3.13;2.83;;;;;;;4.26;57.78;101183.31;6084757;23;20353;-89
2024/01/01 04:33:55;;;;;;;1.40;1.30;;;;;;;4.30;57.78;101187.34;6101801;23;20373;-91
2024/01/01 04:36:21;;;;;;;0.40;0.38;;;;;;;4.56;57.23;101189.78;6080659;23;20375;-88
2024/01/01 04:38:47;;;;;;;0.80;0.80;;;;;;;4.62;57.31;101191.91;6071334;23;20365;-87
2024/01/01 04:41:14;;;;;;;1.35;1.30;;;;;;;4.76;56.52;101191.69;6070463;23;20377;-86
2024/01/01 04:43:40;;;;;;;1.90;1.80;;;;;;;4.72;56.75;101208.66;6070332;23;20445;-86
2024/01/01 04:46:08;;;;;;;2.72;1.75;;;;;;;4.87;56.00;101201.34;6096324;23;20361;-86
2024/01/01 04:48:34;;;;;;;1.13;1.13;;;;;;;4.77;56.65;101193.38;6095324;23;20390;-87
2024/01/01 04:51:00;;;;;;;0.60;0.60;;;;;;;4.83;56.74;101199.94;6093594;23;20369;-88
2024/01/01 04:53:26;;;;;;;0.68;0.68;;;;;;;4.79;56.55;101190.63;6069772;23;20368;-86
2024/01/01 04:55:54;;;;;;;0.40;0.40;;;;;;;4.95;56.60;101195.47;6070300;23;20709;-87
2024/01/01 04:58:20;;;;;;;0.38;0.38;;;;;;;5.10;56.31;101203.97;6070600;23;20373;-87
2024/01/01 05:00:48;;;;;;;0.57;0.57;;;;;;;5.19;55.67;101203.22;6070424;23;20384;-87
2024/01/01 05:03:14;;;;;;;0.60;0.60;;;;;;;5.20;55.60;101198.78;6069594;23;20369;-87
2024/01/01 05:05:39;;;;;;;0.90;0.70;;;;;;;5.26;55.45;101203.56;6081039;23;20369;-87
2024/01/01 05:08:05;;;;;;;0.55;0.55;;;;;;;5.34;55.78;101196.72;6107285;23;20393;-86
2024/01/01 05:10:31;;;;;;;0.50;0.50;;;;;;;5.31;55.61;101194.34;6082250;23;20482;-85
2024/01/01 05:12:57;;;;;;;3.15;2.95;;;;;;;5.36;55.43;101197.41;6071336;23;20369;-86
2024/01/01 05:15:22;;;;;;;2.97;2.73;;;;;;;5.43;55.29;101199.56;6092095;23;20440;-87
2024/01/01 05:17:54;;;;;;;1.37;1.37;;;;;;;5.47;55.34;101207.06;6092320;23;20390;-88
2024/01/01 05:20:19;;;;;;;1.48;1.38;;;;;;;5.45;54.87;101200.28;6067268;23;20361;-85
2024/01/01 05:22:45;;;;;;;0.30;0.30;;;;;;;5.46;55.25;101201.97;6067645;23;20377;-85
2024/01/01 05:25:11;;;;;;;2.30;1.00;;;;;;;5.47;54.95;101193.91;6065971;23;20397;-85
2024/01/01 05:27:36;;;;;;;1.08;0.63;;;;;;;5.44;55.00;101202.06;6065738;23;20369;-84
2024/01/01 05:30:06;;;;;;;1.20;1.20;;;;;;;5.27;55.39;101202.59;6065883;23;20373;-85
2024/01/01 05:32:33;;;;;;;4.05;2.85;;;;;;;5.14;55.37;101200.94;6037166;23;20374;-86
2024/01/01 05:34:58;;;;;;;0.90;0.85;;;;;;;5.17;55.19;101192.81;6060467;23;20404;-86
2024/01/01 05:37:25;;;;;;;0.85;0.85;;;;;;;5.24;55.15;101193.19;6060750;23;20669;-87
2024/01/01 05:39:51;;;;;;;0.60;0.60;;;;;;;5.27;55.10;101195.53;6062441;23;21021;-87
2024/01/01 05:42:18;;;;;;;0.30;0.30;;;;;;;5.27;54.73;101192.91;6038875;23;20483;-87
2024/01/01 05:44:44;;;;;;;0.82;0.82;;;;;;;5.18;54.46;101188.41;6062943;23;20546;-87
2024/01/01 05:47:10;;;;;;;0.95;0.95;;;;;;;5.13;54.67;101180.03;6064305;23;20375;-88
2024/01/01 05:49:35;;;;;;;0.70;0.70;;;;;;;5.10;54.42;101183.75;6064440;23;20454;-88
2024/01/01 05:52:02;;;;;;;1.70;1.33;;;;;;;5.04;54.43;101176.38;6039883;23;20455;-86
2024/01/01 05:54:28;;;;;;;0.80;0.80;;;;;;;5.08;54.33;101164.66;6016183;23;21459;-87
2024/01/01 05:56:53;;;;;;;1.10;0.73;;;;;;;5.11;54.52;101169.69;6063663;23;20923;-87
2024/01/01 05:59:19;;;;;;;0.57;0.57;;;;;;;5.12;54.29;101162.63;6063265;23;20446;-88
2024/01/01 06:01:45;;;;;;;0.50;0.50;;;;;;;5.16;54.22;101172.75;6039448;23;20387;-85
2024/01/01 06:04:11;;;;;;;0.40;0.40;;;;;;;5.09;54.46;101147.09;6087430;23;20388;-86
2024/01/01 06:06:36;;;;;;;0.50;0.50;;;;;;;5.11;54.02;101153.91;6092879;23;20366;-87
2024/01/01 06:09:03;;;;;;;0.67;0.67;;;;;;;5.10;54.14;101168.00;6068439;23;20575;-88
2024/01/01 06:11:29;;;;;;;1.70;0.60;;;;;;;4.98;54.34;101161.09;6069112;23;20368;-88
2024/01/01 06:13:55;;;;;;;1.20;1.10;;;;;;;4.78;55.03;101175.81;6082122;23;20401;-86
2024/01/01 06:16:20;;;;;;;0.60;0.60;;;;;;;4.90;54.87;101172.22;6066305;23;20411;-87
2024/01/01 06:18:46;;;;;;;0.90;0.90;;;;;;;4.95;54.63;101179.72;6064622;23;20374;-87
2024/01/01 06:21:12;;;;;;;4.00;1.20;;;;;;;4.91;54.85;101179.13;6062924;23;20387;-86
2024/01/01 06:23:39;;;;;;;0.90;0.90;;;;;;;5.04;54.82;101178.16;6038412;23;20378;-86
2024/01/01 06:26:05;;;;;;;0.77;0.77;;;;;;;5.11;54.24;101176.69;6038891;23;20371;-87
2024/01/01 06:28:31;;;;;;;0.60;0.60;;;;;;;5.11;54.17;101171.44;6065210;23;20788;-88
2024/01/01 06:30:57;;;;;;;0.50;0.50;;;;;;;5.01;54.46;101178.41;6050095;23;20704;-88
2024/01/01 06:33:22;;;;;;;0.77;0.77;;;;;;;5.00;54.61;101187.25;6082986;23;20379;-88
2024/01/01 06:35:48;;;;;;;0.95;0.95;;;;;;;4.92;54.81;101185.22;6085760;23;20382;-86
2024/01/01 06:38:14;;;;;;;1.03;1.00;;;;;;;5.04;54.81;101197.41;6044052;23;20831;-88
2024/01/01 06:40:39;;;;;;;0.70;0.70;;;;;;;5.08;54.49;101190.09;6040946;23;20391;-88
2024/01/01 06:43:05;;;;;;;1.35;1.30;;;;;;;5.07;54.50;101181.38;6065566;23;20376;-87
2024/01/01 06:45:31;;;;;;;0.70;0.70;;;;;;;5.20;54.05;101183.84;6041091;23;20375;-89
2024/01/01 06:48:02;;;;;;;2.53;2.03;;;;;;;5.07;54.59;101175.28;6040731;23;20387;-87
2024/01/01 06:50:28;;;;;;;1.42;1.33;;;;;;;4.87;55.30;101188.22;6041632;23;20382;-88
2024/01/01 06:52:54;;;;;;;1.05;1.05;;;;;;;4.90;55.81;101181.91;6065300;23;20371;-88
2024/01/01 06:55:22;;;;;;;1.70;0.60;;;;;;;4.94;55.34;101176.25;6040493;23;20720;-88
2024/01/01 06:57:49;;;;;;;1.67;1.57;;;;;;;5.06;55.22;101178.84;6064996;23;20419;-88
2024/01/01 07:00:15;;;;;;;1.20;0.95;;;;;;;5.00;55.36;101187.25;6060408;23;20403;-86
2024/01/01 07:02:41;;;;;;;1.50;1.40;;;;;;;4.95;55.71;101179.72;6038100;23;20410;-88
2024/01/01 07:05:07;;;;;;;5.20;1.58;;;;;;;4.95;55.96;101177.09;6062636;23;20442;-87
2024/01/01 07:07:33;;;;;;;0.70;0.70;;;;;;;5.08;55.68;101167.28;6038786;23;20367;-88
2024/01/01 07:10:00;;;;;;;0.30;0.30;;;;;;;5.28;55.20;101175.38;6063131;23;20379;-88
2024/01/01 07:12:27;;;;;;;1.00;0.68;;;;;;;5.39;54.97;101174.50;6039493;23;20394;-88
2024/01/01 07:14:54;;;;;;;1.38;1.30;;;;;;;5.43;55.00;101174.09;6038668;23;20368;-87
2024/01/01 07:17:20;;;;;;;0.50;0.50;;;;;;;5.54;54.86;101166.16;6039917;23;20840;-87
2024/01/01 07:19:46;;;;;;;0.70;0.70;;;;;;;5.62;54.81;101164.69;6063353;23;21394;-88
2024/01/01 07:22:13;;;;;;;1.00;1.00;;;;;;;5.70;55.00;101160.47;6063592;23;20391;-89
2024/01/01 07:24:39;;;;;;;0.50;0.50;;;;;;;5.74;54.62;101159.28;6063539;23;20364;-88
2024/01/01 07:27:06;;;;;;;1.13;1.08;;;;;;;5.75;54.77;101152.22;6063052;23;20359;-87
2024/01/01 07:29:32;;;;;;;1.27;1.17;;;;;;;5.80;54.27;101155.31;6065008;23;20359;-89
2024/01/01 07:31:58;;;;;;;0.40;0.40;;;;;;;5.83;54.73;101149.75;6065862;23;20450;-89
2024/01/01 07:34:25;;;;;;;0.80;0.80;;;;;;;5.82;54.67;101156.00;6041419;23;20402;-88
2024/01/01 07:36:51;;;;;;;2.90;2.63;;;;;;;5.79;54.52;101153.63;6041141;23;20367;-89
2024/01/01 07:39:19;;;;;;;0.98;0.98;;;;;;;5.87;55.12;101152.97;6041304;23;20374;-89
2024/01/01 07:41:49;;;;;;;0.93;0.93;;;;;;;5.90;54.94;101140.38;6066402;23;20375;-89
2024/01/01 07:44:15;;;;;;;1.85;1.75;;;;;;;5.88;54.89;101130.97;6065043;23;20364;-87
2024/01/01 07:46:48;;;;;;;1.20;1.15;;;;;;;5.82;55.26;101134.97;6064891;23;20383;-89
2024/01/01 07:49:16;;;;;;;1.10;1.10;;;;;;;5.90;55.38;101136.94;6066536;23;20733;-88
2024/01/01 07:51:42;;;;;;;1.38;1.30;;;;;;;5.87;55.15;101152.97;6065101;23;20458;-89
2024/01/01 07:54:07;;;;;;;1.00;0.97;;;;;;;6.01;55.37;101149.22;6040657;23;20387;-88
2024/01/01 07:56:36;;;;;;;0.97;0.97;;;;;;;6.07;54.84;101132.94;6039543;23;20561;-88
2024/01/01 07:59:02;;;;;;;1.25;1.17;;;;;;;6.03;55.03;101135.00;6062334;23;20382;-88
2024/01/01 08:01:27;;;;;;;1.92;1.13;;;;;;;5.99;55.50;101144.09;6063247;23;20765;-88
2024/01/01 08:03:53;;;;;;;0.95;0.95;;;;;;;6.01;55.49;101152.69;6040029;23;20419;-87
2024/01/01 08:06:20;;;;;;;1.23;1.13;;;;;;;6.15;55.25;101145.44;6063844;23;20375;-88
2024/01/01 08:08:46;;;;;;;1.27;1.27;;;;;;;6.16;54.84;101152.34;6063839;23;20367;-88
2024/01/01 08:11:12;;;;;;;2.10;1.70;;;;;;;6.10;55.35;101149.28;6064889;23;20387;-89
2024/01/01 08:13:38;;;;;;;1.40;1.33;;;;;;;6.01;55.21;101151.84;6048374;23;20368;-90
2024/01/01 08:16:04;;;;;;;2.80;2.60;;;;;;;5.97;55.53;101150.44;6060706;23;20382;-90
2024/01/01 08:18:29;;;;;;;2.83;2.63;;;;;;;5.85;55.53;101144.38;6087846;23;20379;-90
2024/01/01 08:20:55;;;;;;;2.28;2.10;;;;;;;5.84;55.51;101161.13;6043127;23;20474;-90
2024/01/01 08:23:21;;;;;;;2.88;2.67;;;;;;;5.67;55.72;101178.31;6068447;23;20756;-91
2024/01/01 08:25:49;;;;;;;8.77;3.00;;;;;;;5.71;55.83;101170.03;6068263;23;20367;-92
2024/01/01 08:28:15;;;;;;;1.30;1.00;;;;;;;5.73;56.27;101162.84;6072047;23;20371;-86
2024/01/01 08:30:43;;;;;;;1.00;1.00;;;;;;;5.75;55.91;101166.19;6081003;23;20367;-88
2024/01/01 08:33:13;;;;;;;2.42;2.33;;;;;;;5.73;55.92;101164.66;6046298;23;20490;-88
2024/01/01 08:35:39;;;;;;;1.20;1.20;;;;;;;5.61;56.63;101165.66;6058911;23;20398;-90
2024/01/01 08:38:15;;;;;;;2.50;2.30;;;;;;;5.70;56.97;101157.03;6091047;23;20386;-93
2024/01/01 08:40:41;;;;;;;1.27;1.17;;;;;;;6.07;56.70;101151.34;6075223;23;20731;-93
2024/01/01 08:43:07;;;;;;;1.10;1.10;;;;;;;6.23;56.17;101156.97;6074598;23;20400;-92
2024/01/01 08:45:32;;;;;;;1.30;1.27;;;;;;;6.27;55.86;101157.56;6049484;23;20382;-90
2024/01/01 08:47:58;;;;;;;1.87;1.77;;;;;;;6.10;56.34;101149.28;6072384;23;20375;-90
2024/01/01 08:50:24;;;;;;;2.90;1.30;;;;;;;6.15;56.55;101148.88;6051351;23;20371;-91
2024/01/01 08:52:50;;;;;;;0.80;0.80;;;;;;;6.36;56.11;101148.88;6053028;23;20386;-91
2024/01/01 08:55:16;;;;;;;2.83;1.98;;;;;;;6.47;55.98;101145.31;6083966;23;20367;-94
2024/01/01 08:57:46;;;;;;;1.35;1.33;;;;;;;6.50;55.92;101150.31;6092614;23;20359;-91
2024/01/01 09:00:21;;;;;;;3.95;2.22;;;;;;;6.60;56.10;101137.16;6090752;23;20403;-88
2024/01/01 09:02:47;;;;;;;1.50;1.40;;;;;;;6.79;56.01;101139.88;6089539;23;20427;-91
2024/01/01 09:05:33;;;;;;;1.23;1.13;;;;;;;6.95;55.62;101141.13;6070420;23;20356;-90
2024/01/01 09:08:02;;;;;;;1.40;1.33;;;;;;;7.06;55.54;101141.88;6060790;23;20418;-93
2024/01/01 09:10:30;;;;;;;1.35;1.25;;;;;;;7.10;55.55;101152.97;6082495;23;20375;-91
2024/01/01 09:12:58;;;;;;;1.80;1.70;;;;;;;7.22;55.35;101153.66;6048128;23;20375;-91
2024/01/01 09:15:24;;;;;;;1.58;1.48;;;;;;;7.22;55.58;101140.47;6069037;23;20379;-90
2024/01/01 09:17:49;;;;;;;0.52;0.52;;;;;;;7.36;55.45;101126.06;6070052;23;20439;-91
2024/01/01 09:20:18;;;;;;;2.35;2.20;;;;;;;7.44;55.00;101108.56;6068367;23;20450;-90
2024/01/01 09:22:53;;;;;;;1.50;1.40;;;;;;;7.50;54.88;101108.97;6069616;23;20391;-91
2024/01/01 09:25:18;;;;;;;1.50;1.40;;;;;;;7.37;55.23;101096.91;6072732;23;20823;-90
2024/01/01 09:27:47;;;;;;;3.30;2.47;;;;;;;7.43;55.20;101106.88;6069156;23;20381;-91
2024/01/01 09:30:14;;;;;;;2.73;1.80;;;;;;;7.55;55.35;101114.69;6068347;23;20438;-91
2024/01/01 09:32:40;;;;;;;1.17;1.02;;;;;;;7.68;55.07;101117.03;6069091;23;20831;-89
2024/01/01 09:35:06;;;;;;;1.52;1.42;;;;;;;7.76;54.86;101111.84;6065880;23;20371;-90
2024/01/01 09:37:33;;;;;;;1.10;1.10;;;;;;;7.54;55.31;101118.28;6068729;23;20371;-90
2024/01/01 09:40:03;;;;;;;1.33;1.23;;;;;;;7.65;55.59;101104.94;6070498;23;20359;-90
2024/01/01 09:42:31;;;;;;;0.87;0.87;;;;;;;7.84;54.90;101096.16;6049667;23;20399;-91
2024/01/01 09:44:57;;;;;;;2.28;1.58;;;;;;;7.85;55.13;101098.66;6073709;23;20368;-90
2024/01/01 09:50:54;;;;;;;;;;;;;;;;;;;;;
2024/01/01 09:53:20;;;;;;;2.28;2.08;;;;;;;7.96;54.89;101092.38;6069043;23;20450;-90
2024/01/01 09:55:54;;;;;;;1.17;1.17;;;;;;;7.92;54.94;101083.06;6079316;23;20382;-89
2024/01/01 09:58:22;;;;;;;2.13;2.00;;;;;;;7.96;55.13;101073.03;6045065;23;20386;-90
2024/01/01 10:00:48;;;;;;;1.67;1.38;;;;;;;8.08;54.89;101068.44;6068993;23;20383;-91
2024/01/01 10:03:21;;;;;;;1.10;1.10;;;;;;;8.22;54.66;101065.31;6084090;23;20430;-90
2024/01/01 10:05:48;;;;;;;2.50;2.30;;;;;;;8.23;54.41;101056.44;6070675;23;20449;-92
2024/01/01 10:08:17;;;;;;;2.10;1.60;;;;;;;8.26;55.01;101057.94;6068378;23;20379;-90
2024/01/01 10:10:53;;;;;;;1.63;1.52;;;;;;;8.29;54.62;101042.63;6073068;23;20437;-93
2024/01/01 10:13:20;;;;;;;1.75;1.50;;;;;;;8.33;54.46;101043.97;6047626;23;20364;-86
2024/01/01 10:15:57;;;;;;;1.75;1.58;;;;;;;8.46;54.47;101046.31;6074026;23;20922;-89
2024/01/01 10:18:23;;;;;;;1.30;1.20;;;;;;;8.60;53.96;101044.97;6062528;23;20411;-90
2024/01/01 10:20:50;;;;;;;1.33;1.23;;;;;;;8.56;54.30;101033.06;6092582;23;20391;-89
2024/01/01 10:23:25;;;;;;;1.27;1.23;;;;;;;8.58;54.31;101031.91;6060692;23;20380;-93
2024/01/01 10:26:07;;;;;;;0.95;0.95;;;;;;;8.64;54.07;101029.66;6074624;23;20352;-93
2024/01/01 10:28:33;;;;;;;0.83;0.83;;;;;;;8.71;54.29;101030.72;6033025;23;20347;-91
2024/01/01 10:31:01;;;;;;;1.58;1.48;;;;;;;8.74;53.83;101018.03;6045870;23;20421;-91
2024/01/01 10:33:32;;;;;;;2.77;2.57;;;;;;;8.83;53.96;101011.03;6045650;23;20370;-91
2024/01/01 10:39:21;;;;;;;0.65;0.65;;;;;;;8.98;53.77;101000.72;6093272;23;20353;-90
2024/01/01 10:41:50;;;;;;;1.58;1.48;;;;;;;8.85;53.94;100998.47;6094365;23;20402;-91
2024/01/01 11:30:35;;;;;;;4.60;2.95;;;;;;;9.47;52.78;100931.47;6113841;23;20393;-94
2024/01/01 11:33:11;;;;;;;2.00;1.90;;;;;;;9.62;52.76;100932.53;6110147;23;20419;-94
2024/01/01 11:41:10;;;;;;;2.60;2.40;;;;;;;9.54;52.75;100908.69;6089549;23;20472;-93
2024/01/01 12:43:11;;;;;;;1.48;1.38;;;;;;;10.17;52.18;100896.81;6119722;23;20388;-92
2024/01/01 12:45:37;;;;;;;1.35;1.25;;;;;;;10.17;51.83;100886.19;6120932;23;20389;-93
2024/01/01 12:48:04;;;;;;;1.88;1.50;;;;;;;10.24;51.91;100879.25;6081041;23;20885;-93
2024/01/01 12:50:30;;;;;;;1.20;1.00;;;;;;;10.26;52.04;100884.41;6078577;23;20366;-94
2024/01/01 12:52:56;;;;;;;0.53;0.53;;;;;;;10.32;51.67;100884.63;6104399;23;20423;-93
2024/01/01 12:55:22;;;;;;;1.92;1.83;;;;;;;10.29;52.02;100876.13;6079550;23;21021;-93
2024/01/01 12:57:49;;;;;;;1.20;1.00;;;;;;;10.35;51.80;100886.09;6082494;23;20366;-95
2024/01/01 13:00:19;;;;;;;0.70;0.70;;;;;;;10.42;51.58;100871.19;6106699;23;20406;-94
2024/01/01 13:02:49;;;;;;;3.17;2.93;;;;;;;10.43;51.63;100880.81;6108989;23;20385;-96
2024/01/01 13:05:15;;;;;;;1.15;1.13;;;;;;;10.49;51.03;100874.84;6062437;23;20369;-95
2024/01/01 13:07:47;;;;;;;1.10;1.00;;;;;;;10.45;51.55;100872.69;6112943;23;20358;-96
2024/01/01 13:10:28;;;;;;;1.35;1.25;;;;;;;10.53;51.46;100883.28;6092109;23;20366;-94
2024/01/01 13:36:21;;;;;;;0.90;0.90;;;;;;;10.94;50.89;100864.69;6068510;23;20409;31
2024/01/01 13:38:47;;;;;;;1.00;1.00;;;;;;;11.04;50.82;100867.19;6041975;23;20412;-92
2024/01/01 13:41:20;;;;;;;3.25;2.50;;;;;;;11.04;50.59;100875.97;6020364;23;20387;-93
2024/01/01 13:44:28;;;;;;;0.82;0.82;;;;;;;11.08;50.78;100879.09;6047763;23;20371;-93
2024/01/01 13:46:54;;;;;;;2.65;1.95;;;;;;;10.93;50.88;100873.69;6044583;23;20361;-94
2024/01/01 13:49:21;;;;;;;2.45;2.08;;;;;;;10.75;50.76;100868.56;6015937;23;20362;-92
2024/01/01 13:54:29;;;;;;;1.48;1.40;;;;;;;10.89;50.98;100867.88;6037350;23;20404;-93
2024/01/01 13:56:55;;;;;;;5.25;2.83;;;;;;;10.96;50.97;100864.53;6070915;23;20463;-92
2024/01/01 13:59:21;;;;;;;1.42;1.33;;;;;;;11.00;50.72;100864.03;6070646;23;20390;-93